sensor_id;sensor_type;location;lat;lon;timestamp;P1;durP1;ratioP1;P2;durP2;ratioP2
27893;SDS011;15240;50.812;4.792;2023-02-15T00:01:25;118.00;;;59.83;;
27893;SDS011;15240;50.812;4.792;2023-02-15T00:03:51;119.53;;;59.13;;
27893;SDS011;15240;50.812;4.792;2023-02-15T00:06:18;120.33;;;61.10;;
27893;SDS011;15240;50.812;4.792;2023-02-15T00:08:44;125.60;;;61.67;;
27893;SDS011;15240;50.812;4.792;2023-02-15T00:11:10;123.03;;;60.67;;
27893;SDS011;15240;50.812;4.792;2023-02-15T00:13:37;121.90;;;59.57;;
27893;SDS011;15240;50.812;4.792;2023-02-15T00:16:07;115.87;;;55.93;;
27893;SDS011;15240;50.812;4.792;2023-02-15T00:18:35;109.77;;;54.73;;
27893;SDS011;15240;50.812;4.792;2023-02-15T00:21:04;112.03;;;55.53;;
27893;SDS011;15240;50.812;4.792;2023-02-15T00:23:31;106.10;;;54.67;;
27893;SDS011;15240;50.812;4.792;2023-02-15T00:26:07;111.57;;;55.77;;
27893;SDS011;15240;50.812;4.792;2023-02-15T00:28:33;117.80;;;59.90;;
27893;SDS011;15240;50.812;4.792;2023-02-15T00:31:03;120.63;;;57.43;;
27893;SDS011;15240;50.812;4.792;2023-02-15T00:33:29;117.03;;;57.87;;
27893;SDS011;15240;50.812;4.792;2023-02-15T00:35:56;123.03;;;59.37;;
27893;SDS011;15240;50.812;4.792;2023-02-15T00:38:23;107.80;;;54.83;;
27893;SDS011;15240;50.812;4.792;2023-02-15T00:40:55;127.83;;;60.33;;
27893;SDS011;15240;50.812;4.792;2023-02-15T00:43:21;112.03;;;55.20;;
27893;SDS011;15240;50.812;4.792;2023-02-15T00:45:47;124.17;;;58.93;;
27893;SDS011;15240;50.812;4.792;2023-02-15T00:48:14;116.27;;;56.67;;
27893;SDS011;15240;50.812;4.792;2023-02-15T00:50:40;119.77;;;58.63;;
27893;SDS011;15240;50.812;4.792;2023-02-15T00:53:07;116.77;;;58.47;;
27893;SDS011;15240;50.812;4.792;2023-02-15T00:55:33;115.20;;;57.53;;
27893;SDS011;15240;50.812;4.792;2023-02-15T00:57:59;114.13;;;57.57;;
27893;SDS011;15240;50.812;4.792;2023-02-15T01:00:25;107.70;;;54.27;;
27893;SDS011;15240;50.812;4.792;2023-02-15T01:02:51;111.07;;;56.37;;
27893;SDS011;15240;50.812;4.792;2023-02-15T01:05:18;99.33;;;51.53;;
27893;SDS011;15240;50.812;4.792;2023-02-15T01:07:44;102.80;;;51.87;;
27893;SDS011;15240;50.812;4.792;2023-02-15T01:10:10;101.33;;;51.23;;
27893;SDS011;15240;50.812;4.792;2023-02-15T01:12:36;95.30;;;49.23;;
27893;SDS011;15240;50.812;4.792;2023-02-15T01:15:02;95.83;;;50.00;;
27893;SDS011;15240;50.812;4.792;2023-02-15T01:17:28;88.63;;;48.07;;
27893;SDS011;15240;50.812;4.792;2023-02-15T01:19:54;103.57;;;51.27;;
27893;SDS011;15240;50.812;4.792;2023-02-15T01:22:20;101.97;;;52.70;;
27893;SDS011;15240;50.812;4.792;2023-02-15T01:24:48;101.60;;;51.73;;
27893;SDS011;15240;50.812;4.792;2023-02-15T01:27:15;101.30;;;50.80;;
27893;SDS011;15240;50.812;4.792;2023-02-15T01:29:41;104.37;;;50.63;;
27893;SDS011;15240;50.812;4.792;2023-02-15T01:32:07;106.53;;;52.37;;
27893;SDS011;15240;50.812;4.792;2023-02-15T01:34:33;105.33;;;52.10;;
27893;SDS011;15240;50.812;4.792;2023-02-15T01:36:59;97.83;;;49.67;;
27893;SDS011;15240;50.812;4.792;2023-02-15T01:39:26;102.30;;;52.33;;
27893;SDS011;15240;50.812;4.792;2023-02-15T01:41:52;100.40;;;51.53;;
27893;SDS011;15240;50.812;4.792;2023-02-15T01:47:03;102.93;;;53.37;;
27893;SDS011;15240;50.812;4.792;2023-02-15T01:49:29;108.13;;;54.43;;
27893;SDS011;15240;50.812;4.792;2023-02-15T01:51:55;101.40;;;51.63;;
27893;SDS011;15240;50.812;4.792;2023-02-15T01:54:22;99.33;;;53.70;;
27893;SDS011;15240;50.812;4.792;2023-02-15T01:56:49;105.10;;;52.60;;
27893;SDS011;15240;50.812;4.792;2023-02-15T01:59:16;99.30;;;52.80;;
27893;SDS011;15240;50.812;4.792;2023-02-15T02:01:43;96.60;;;50.33;;
27893;SDS011;15240;50.812;4.792;2023-02-15T02:07:04;94.53;;;51.03;;
27893;SDS011;15240;50.812;4.792;2023-02-15T02:09:31;109.30;;;53.70;;
27893;SDS011;15240;50.812;4.792;2023-02-15T02:11:57;96.00;;;51.23;;
27893;SDS011;15240;50.812;4.792;2023-02-15T02:14:23;95.50;;;51.03;;
27893;SDS011;15240;50.812;4.792;2023-02-15T02:22:36;104.83;;;52.80;;
27893;SDS011;15240;50.812;4.792;2023-02-15T02:27:44;105.97;;;54.13;;
27893;SDS011;15240;50.812;4.792;2023-02-15T02:35:56;112.53;;;54.33;;
27893;SDS011;15240;50.812;4.792;2023-02-15T02:42:18;124.33;;;58.43;;
27893;SDS011;15240;50.812;4.792;2023-02-15T02:44:18;92.33;;;49.63;;
27893;SDS011;15240;50.812;4.792;2023-02-15T02:46:54;110.87;;;57.70;;
27893;SDS011;15240;50.812;4.792;2023-02-15T02:49:58;107.07;;;54.37;;
27893;SDS011;15240;50.812;4.792;2023-02-15T02:54:58;107.67;;;54.43;;
27893;SDS011;15240;50.812;4.792;2023-02-15T02:57:25;114.57;;;57.50;;
27893;SDS011;15240;50.812;4.792;2023-02-15T02:59:53;114.13;;;56.33;;
27893;SDS011;15240;50.812;4.792;2023-02-15T03:02:21;101.87;;;52.90;;
27893;SDS011;15240;50.812;4.792;2023-02-15T03:04:49;121.80;;;58.83;;
27893;SDS011;15240;50.812;4.792;2023-02-15T03:07:23;115.47;;;58.50;;
27893;SDS011;15240;50.812;4.792;2023-02-15T03:09:51;115.70;;;57.37;;
27893;SDS011;15240;50.812;4.792;2023-02-15T03:12:23;125.70;;;60.77;;
27893;SDS011;15240;50.812;4.792;2023-02-15T03:14:51;113.97;;;57.53;;
27893;SDS011;15240;50.812;4.792;2023-02-15T03:17:18;113.67;;;57.53;;
27893;SDS011;15240;50.812;4.792;2023-02-15T03:19:46;115.40;;;56.63;;
27893;SDS011;15240;50.812;4.792;2023-02-15T03:25:09;116.20;;;57.73;;
27893;SDS011;15240;50.812;4.792;2023-02-15T03:27:38;127.33;;;59.37;;
27893;SDS011;15240;50.812;4.792;2023-02-15T03:30:06;125.27;;;60.53;;
27893;SDS011;15240;50.812;4.792;2023-02-15T03:32:34;127.23;;;60.63;;
27893;SDS011;15240;50.812;4.792;2023-02-15T03:35:01;131.07;;;63.17;;
27893;SDS011;15240;50.812;4.792;2023-02-15T03:37:32;127.57;;;61.37;;
27893;SDS011;15240;50.812;4.792;2023-02-15T03:42:48;131.90;;;62.53;;
27893;SDS011;15240;50.812;4.792;2023-02-15T03:45:18;134.47;;;63.73;;
27893;SDS011;15240;50.812;4.792;2023-02-15T03:47:48;135.00;;;63.50;;
27893;SDS011;15240;50.812;4.792;2023-02-15T03:53:00;130.97;;;64.07;;
27893;SDS011;15240;50.812;4.792;2023-02-15T03:55:28;135.03;;;62.73;;
27893;SDS011;15240;50.812;4.792;2023-02-15T03:57:54;128.27;;;63.93;;
27893;SDS011;15240;50.812;4.792;2023-02-15T04:00:40;130.10;;;61.80;;
27893;SDS011;15240;50.812;4.792;2023-02-15T04:03:32;120.47;;;57.87;;
27893;SDS011;15240;50.812;4.792;2023-02-15T04:05:59;132.40;;;61.63;;
27893;SDS011;15240;50.812;4.792;2023-02-15T04:08:27;139.87;;;64.33;;
27893;SDS011;15240;50.812;4.792;2023-02-15T04:11:11;136.67;;;62.70;;
27893;SDS011;15240;50.812;4.792;2023-02-15T04:13:37;134.63;;;64.30;;
27893;SDS011;15240;50.812;4.792;2023-02-15T04:16:03;127.13;;;61.03;;
27893;SDS011;15240;50.812;4.792;2023-02-15T04:18:34;130.40;;;61.13;;
27893;SDS011;15240;50.812;4.792;2023-02-15T04:21:20;130.30;;;63.17;;
27893;SDS011;15240;50.812;4.792;2023-02-15T04:24:05;120.20;;;59.67;;
27893;SDS011;15240;50.812;4.792;2023-02-15T04:26:50;126.77;;;59.40;;
27893;SDS011;15240;50.812;4.792;2023-02-15T04:29:19;121.17;;;58.50;;
27893;SDS011;15240;50.812;4.792;2023-02-15T04:31:46;123.87;;;56.07;;
27893;SDS011;15240;50.812;4.792;2023-02-15T04:34:12;124.07;;;58.50;;
27893;SDS011;15240;50.812;4.792;2023-02-15T04:36:39;120.63;;;58.83;;
27893;SDS011;15240;50.812;4.792;2023-02-15T04:39:05;123.97;;;57.17;;
27893;SDS011;15240;50.812;4.792;2023-02-15T04:41:32;116.20;;;57.83;;
27893;SDS011;15240;50.812;4.792;2023-02-15T04:43:58;126.43;;;59.73;;
27893;SDS011;15240;50.812;4.792;2023-02-15T04:46:25;115.97;;;55.73;;
27893;SDS011;15240;50.812;4.792;2023-02-15T04:48:51;115.97;;;54.53;;
27893;SDS011;15240;50.812;4.792;2023-02-15T04:51:17;126.40;;;58.07;;
27893;SDS011;15240;50.812;4.792;2023-02-15T04:53:43;127.83;;;60.47;;
27893;SDS011;15240;50.812;4.792;2023-02-15T04:56:10;126.30;;;59.40;;
27893;SDS011;15240;50.812;4.792;2023-02-15T04:58:36;119.80;;;56.77;;
27893;SDS011;15240;50.812;4.792;2023-02-15T05:01:06;111.03;;;51.77;;
27893;SDS011;15240;50.812;4.792;2023-02-15T05:03:32;117.50;;;59.47;;
27893;SDS011;15240;50.812;4.792;2023-02-15T05:05:58;122.90;;;58.80;;
27893;SDS011;15240;50.812;4.792;2023-02-15T05:08:24;138.10;;;61.53;;
27893;SDS011;15240;50.812;4.792;2023-02-15T05:10:50;131.30;;;61.07;;
27893;SDS011;15240;50.812;4.792;2023-02-15T05:13:16;140.60;;;62.77;;
27893;SDS011;15240;50.812;4.792;2023-02-15T05:15:46;126.63;;;60.23;;
27893;SDS011;15240;50.812;4.792;2023-02-15T05:18:13;115.07;;;58.27;;
27893;SDS011;15240;50.812;4.792;2023-02-15T05:20:39;134.23;;;60.03;;
27893;SDS011;15240;50.812;4.792;2023-02-15T05:23:05;123.17;;;57.67;;
27893;SDS011;15240;50.812;4.792;2023-02-15T05:25:31;131.37;;;55.17;;
27893;SDS011;15240;50.812;4.792;2023-02-15T05:28:26;115.73;;;52.13;;
27893;SDS011;15240;50.812;4.792;2023-02-15T05:33:25;117.27;;;56.47;;
27893;SDS011;15240;50.812;4.792;2023-02-15T05:35:51;122.10;;;59.07;;
27893;SDS011;15240;50.812;4.792;2023-02-15T05:38:18;133.63;;;57.03;;
27893;SDS011;15240;50.812;4.792;2023-02-15T05:40:44;125.17;;;57.43;;
27893;SDS011;15240;50.812;4.792;2023-02-15T05:43:10;120.80;;;57.83;;
27893;SDS011;15240;50.812;4.792;2023-02-15T05:45:36;135.03;;;61.93;;
27893;SDS011;15240;50.812;4.792;2023-02-15T05:48:02;147.30;;;63.53;;
27893;SDS011;15240;50.812;4.792;2023-02-15T05:50:28;140.27;;;69.23;;
27893;SDS011;15240;50.812;4.792;2023-02-15T05:52:54;149.67;;;67.97;;
27893;SDS011;15240;50.812;4.792;2023-02-15T05:55:20;158.77;;;68.90;;
27893;SDS011;15240;50.812;4.792;2023-02-15T05:57:46;141.53;;;63.50;;
27893;SDS011;15240;50.812;4.792;2023-02-15T06:00:13;148.17;;;63.97;;
27893;SDS011;15240;50.812;4.792;2023-02-15T06:02:39;146.67;;;65.47;;
27893;SDS011;15240;50.812;4.792;2023-02-15T06:05:05;142.10;;;64.83;;
27893;SDS011;15240;50.812;4.792;2023-02-15T06:07:32;146.63;;;66.53;;
27893;SDS011;15240;50.812;4.792;2023-02-15T06:09:58;142.70;;;65.87;;
27893;SDS011;15240;50.812;4.792;2023-02-15T06:12:24;140.10;;;64.53;;
27893;SDS011;15240;50.812;4.792;2023-02-15T06:14:50;138.27;;;65.00;;
27893;SDS011;15240;50.812;4.792;2023-02-15T06:17:16;136.23;;;63.97;;
27893;SDS011;15240;50.812;4.792;2023-02-15T06:19:43;135.93;;;62.87;;
27893;SDS011;15240;50.812;4.792;2023-02-15T06:22:09;119.90;;;58.77;;
27893;SDS011;15240;50.812;4.792;2023-02-15T06:24:35;124.73;;;57.67;;
27893;SDS011;15240;50.812;4.792;2023-02-15T06:27:01;136.43;;;61.23;;
27893;SDS011;15240;50.812;4.792;2023-02-15T06:29:27;132.00;;;58.33;;
27893;SDS011;15240;50.812;4.792;2023-02-15T06:31:53;131.33;;;60.57;;
27893;SDS011;15240;50.812;4.792;2023-02-15T06:34:19;139.33;;;61.17;;
27893;SDS011;15240;50.812;4.792;2023-02-15T06:36:45;133.63;;;62.93;;
27893;SDS011;15240;50.812;4.792;2023-02-15T06:39:11;132.23;;;59.13;;
27893;SDS011;15240;50.812;4.792;2023-02-15T06:41:38;140.53;;;63.27;;
27893;SDS011;15240;50.812;4.792;2023-02-15T06:44:04;124.27;;;58.17;;
27893;SDS011;15240;50.812;4.792;2023-02-15T06:46:30;132.20;;;58.80;;
27893;SDS011;15240;50.812;4.792;2023-02-15T06:48:56;131.90;;;59.17;;
27893;SDS011;15240;50.812;4.792;2023-02-15T06:51:22;125.47;;;57.90;;
27893;SDS011;15240;50.812;4.792;2023-02-15T06:53:48;108.20;;;52.67;;
27893;SDS011;15240;50.812;4.792;2023-02-15T06:56:14;112.60;;;55.27;;
27893;SDS011;15240;50.812;4.792;2023-02-15T06:58:41;126.20;;;55.77;;
27893;SDS011;15240;50.812;4.792;2023-02-15T07:01:08;116.20;;;56.20;;
27893;SDS011;15240;50.812;4.792;2023-02-15T07:03:34;114.10;;;52.33;;
27893;SDS011;15240;50.812;4.792;2023-02-15T07:06:02;106.80;;;51.07;;
27893;SDS011;15240;50.812;4.792;2023-02-15T07:08:30;116.53;;;54.73;;
27893;SDS011;15240;50.812;4.792;2023-02-15T07:10:56;125.43;;;56.83;;
27893;SDS011;15240;50.812;4.792;2023-02-15T07:13:42;116.00;;;55.80;;
27893;SDS011;15240;50.812;4.792;2023-02-15T07:16:08;122.33;;;56.03;;
27893;SDS011;15240;50.812;4.792;2023-02-15T07:18:35;128.63;;;55.83;;
27893;SDS011;15240;50.812;4.792;2023-02-15T07:21:01;133.67;;;56.67;;
27893;SDS011;15240;50.812;4.792;2023-02-15T07:23:27;119.07;;;58.13;;
27893;SDS011;15240;50.812;4.792;2023-02-15T07:25:59;120.13;;;57.73;;
27893;SDS011;15240;50.812;4.792;2023-02-15T07:40:48;109.83;;;55.37;;
27893;SDS011;15240;50.812;4.792;2023-02-15T07:46:18;93.53;;;49.20;;
27893;SDS011;15240;50.812;4.792;2023-02-15T07:48:45;85.93;;;46.93;;
27893;SDS011;15240;50.812;4.792;2023-02-15T08:00:01;73.47;;;43.13;;
27893;SDS011;15240;50.812;4.792;2023-02-15T08:02:28;71.37;;;40.80;;
27893;SDS011;15240;50.812;4.792;2023-02-15T08:04:55;68.00;;;41.40;;
27893;SDS011;15240;50.812;4.792;2023-02-15T08:07:21;64.30;;;38.40;;
27893;SDS011;15240;50.812;4.792;2023-02-15T08:09:47;66.70;;;38.17;;
27893;SDS011;15240;50.812;4.792;2023-02-15T08:15:17;59.83;;;35.50;;
27893;SDS011;15240;50.812;4.792;2023-02-15T08:23:57;57.50;;;34.27;;
27893;SDS011;15240;50.812;4.792;2023-02-15T08:29:12;54.40;;;32.80;;
27893;SDS011;15240;50.812;4.792;2023-02-15T08:31:38;55.73;;;33.53;;
27893;SDS011;15240;50.812;4.792;2023-02-15T08:34:06;56.13;;;33.20;;
27893;SDS011;15240;50.812;4.792;2023-02-15T08:36:32;58.07;;;33.97;;
27893;SDS011;15240;50.812;4.792;2023-02-15T08:38:58;57.17;;;32.87;;
27893;SDS011;15240;50.812;4.792;2023-02-15T08:41:28;58.13;;;33.53;;
27893;SDS011;15240;50.812;4.792;2023-02-15T08:43:55;55.47;;;31.73;;
27893;SDS011;15240;50.812;4.792;2023-02-15T08:46:22;51.70;;;31.50;;
27893;SDS011;15240;50.812;4.792;2023-02-15T08:48:49;52.47;;;31.30;;
27893;SDS011;15240;50.812;4.792;2023-02-15T08:51:19;52.20;;;30.83;;
27893;SDS011;15240;50.812;4.792;2023-02-15T08:53:47;53.53;;;31.57;;
27893;SDS011;15240;50.812;4.792;2023-02-15T08:56:17;49.97;;;30.07;;
27893;SDS011;15240;50.812;4.792;2023-02-15T08:58:44;52.57;;;31.20;;
27893;SDS011;15240;50.812;4.792;2023-02-15T09:01:11;51.10;;;31.33;;
27893;SDS011;15240;50.812;4.792;2023-02-15T09:03:38;49.27;;;30.37;;
27893;SDS011;15240;50.812;4.792;2023-02-15T09:06:05;48.13;;;29.70;;
27893;SDS011;15240;50.812;4.792;2023-02-15T09:08:31;46.53;;;28.73;;
27893;SDS011;15240;50.812;4.792;2023-02-15T09:11:05;50.63;;;29.93;;
27893;SDS011;15240;50.812;4.792;2023-02-15T09:13:31;46.67;;;28.27;;
27893;SDS011;15240;50.812;4.792;2023-02-15T09:16:03;47.73;;;29.63;;
27893;SDS011;15240;50.812;4.792;2023-02-15T09:18:30;44.10;;;28.10;;
27893;SDS011;15240;50.812;4.792;2023-02-15T09:20:57;46.27;;;27.33;;
27893;SDS011;15240;50.812;4.792;2023-02-15T09:23:28;42.03;;;27.07;;
27893;SDS011;15240;50.812;4.792;2023-02-15T09:25:55;41.93;;;27.13;;
27893;SDS011;15240;50.812;4.792;2023-02-15T09:28:21;45.23;;;26.83;;
27893;SDS011;15240;50.812;4.792;2023-02-15T09:30:47;38.10;;;26.10;;
27893;SDS011;15240;50.812;4.792;2023-02-15T09:33:13;42.63;;;27.30;;
27893;SDS011;15240;50.812;4.792;2023-02-15T09:35:39;41.73;;;27.03;;
27893;SDS011;15240;50.812;4.792;2023-02-15T09:38:06;44.30;;;27.67;;
27893;SDS011;15240;50.812;4.792;2023-02-15T09:40:33;44.67;;;27.80;;
27893;SDS011;15240;50.812;4.792;2023-02-15T09:43:17;44.33;;;28.00;;
27893;SDS011;15240;50.812;4.792;2023-02-15T09:48:38;44.00;;;26.27;;
27893;SDS011;15240;50.812;4.792;2023-02-15T09:51:13;41.43;;;25.40;;
27893;SDS011;15240;50.812;4.792;2023-02-15T09:56:25;38.90;;;23.17;;
27893;SDS011;15240;50.812;4.792;2023-02-15T09:58:57;42.67;;;23.10;;
27893;SDS011;15240;50.812;4.792;2023-02-15T10:12:11;34.43;;;20.73;;
27893;SDS011;15240;50.812;4.792;2023-02-15T10:14:59;35.77;;;22.57;;
27893;SDS011;15240;50.812;4.792;2023-02-15T10:27:24;40.43;;;22.57;;
27893;SDS011;15240;50.812;4.792;2023-02-15T10:29:57;35.53;;;22.93;;
27893;SDS011;15240;50.812;4.792;2023-02-15T10:32:27;36.40;;;21.60;;
27893;SDS011;15240;50.812;4.792;2023-02-15T10:35:03;36.93;;;22.83;;
27893;SDS011;15240;50.812;4.792;2023-02-15T10:40:25;39.30;;;23.40;;
27893;SDS011;15240;50.812;4.792;2023-02-15T10:43:13;39.23;;;22.70;;
27893;SDS011;15240;50.812;4.792;2023-02-15T10:45:45;38.93;;;22.43;;
27893;SDS011;15240;50.812;4.792;2023-02-15T10:55:45;42.23;;;22.80;;
27893;SDS011;15240;50.812;4.792;2023-02-15T11:00:41;40.37;;;23.90;;
27893;SDS011;15240;50.812;4.792;2023-02-15T11:08:18;40.03;;;22.93;;
27893;SDS011;15240;50.812;4.792;2023-02-15T11:10:47;38.60;;;24.00;;
27893;SDS011;15240;50.812;4.792;2023-02-15T11:13:18;43.97;;;24.33;;
27893;SDS011;15240;50.812;4.792;2023-02-15T11:15:54;38.87;;;23.17;;
27893;SDS011;15240;50.812;4.792;2023-02-15T11:23:59;38.97;;;23.83;;
27893;SDS011;15240;50.812;4.792;2023-02-15T11:28:59;39.90;;;24.30;;
27893;SDS011;15240;50.812;4.792;2023-02-15T11:31:27;38.90;;;24.10;;
27893;SDS011;15240;50.812;4.792;2023-02-15T11:34:03;41.63;;;24.93;;
27893;SDS011;15240;50.812;4.792;2023-02-15T11:36:34;39.87;;;23.87;;
27893;SDS011;15240;50.812;4.792;2023-02-15T11:39:04;43.57;;;25.80;;
27893;SDS011;15240;50.812;4.792;2023-02-15T11:41:34;42.93;;;26.03;;
27893;SDS011;15240;50.812;4.792;2023-02-15T11:47:10;43.87;;;25.00;;
27893;SDS011;15240;50.812;4.792;2023-02-15T11:49:36;45.67;;;26.67;;
27893;SDS011;15240;50.812;4.792;2023-02-15T11:52:06;45.47;;;26.50;;
27893;SDS011;15240;50.812;4.792;2023-02-15T11:54:34;48.33;;;27.40;;
27893;SDS011;15240;50.812;4.792;2023-02-15T11:57:18;46.40;;;27.63;;
27893;SDS011;15240;50.812;4.792;2023-02-15T12:02:50;49.57;;;29.30;;
27893;SDS011;15240;50.812;4.792;2023-02-15T12:05:19;51.07;;;28.70;;
27893;SDS011;15240;50.812;4.792;2023-02-15T12:11:05;50.73;;;29.13;;
27893;SDS011;15240;50.812;4.792;2023-02-15T12:13:32;44.87;;;27.37;;
27893;SDS011;15240;50.812;4.792;2023-02-15T12:15:59;51.07;;;29.30;;
27893;SDS011;15240;50.812;4.792;2023-02-15T12:29:35;44.33;;;27.53;;
27893;SDS011;15240;50.812;4.792;2023-02-15T12:32:05;39.33;;;26.07;;
27893;SDS011;15240;50.812;4.792;2023-02-15T12:34:35;43.40;;;26.43;;
27893;SDS011;15240;50.812;4.792;2023-02-15T12:37:26;45.77;;;27.73;;
27893;SDS011;15240;50.812;4.792;2023-02-15T12:40:20;46.30;;;28.70;;
27893;SDS011;15240;50.812;4.792;2023-02-15T12:42:46;44.60;;;28.47;;
27893;SDS011;15240;50.812;4.792;2023-02-15T12:45:24;44.37;;;27.77;;
27893;SDS011;15240;50.812;4.792;2023-02-15T12:48:35;45.03;;;27.87;;
27893;SDS011;15240;50.812;4.792;2023-02-15T12:53:41;44.80;;;27.37;;
27893;SDS011;15240;50.812;4.792;2023-02-15T12:59:24;46.40;;;27.73;;
27893;SDS011;15240;50.812;4.792;2023-02-15T13:01:51;46.57;;;28.00;;
27893;SDS011;15240;50.812;4.792;2023-02-15T13:10:18;46.17;;;27.17;;
27893;SDS011;15240;50.812;4.792;2023-02-15T13:12:46;46.47;;;28.23;;
27893;SDS011;15240;50.812;4.792;2023-02-15T13:15:22;46.03;;;28.00;;
27893;SDS011;15240;50.812;4.792;2023-02-15T13:17:49;48.97;;;27.77;;
27893;SDS011;15240;50.812;4.792;2023-02-15T13:20:19;46.03;;;27.47;;
27893;SDS011;15240;50.812;4.792;2023-02-15T13:22:50;44.73;;;27.67;;
27893;SDS011;15240;50.812;4.792;2023-02-15T13:25:28;47.57;;;27.63;;
27893;SDS011;15240;50.812;4.792;2023-02-15T13:27:57;48.27;;;28.40;;
27893;SDS011;15240;50.812;4.792;2023-02-15T13:30:25;45.47;;;27.47;;
27893;SDS011;15240;50.812;4.792;2023-02-15T13:32:53;47.67;;;28.00;;
27893;SDS011;15240;50.812;4.792;2023-02-15T13:35:20;46.07;;;28.03;;
27893;SDS011;15240;50.812;4.792;2023-02-15T13:42:59;46.23;;;28.30;;
27893;SDS011;15240;50.812;4.792;2023-02-15T13:45:39;49.27;;;29.00;;
27893;SDS011;15240;50.812;4.792;2023-02-15T13:55:54;44.43;;;27.53;;
27893;SDS011;15240;50.812;4.792;2023-02-15T14:06:05;46.33;;;28.10;;
27893;SDS011;15240;50.812;4.792;2023-02-15T14:16:03;46.67;;;28.93;;
27893;SDS011;15240;50.812;4.792;2023-02-15T14:21:04;48.23;;;28.17;;
27893;SDS011;15240;50.812;4.792;2023-02-15T14:26:10;49.23;;;29.10;;
27893;SDS011;15240;50.812;4.792;2023-02-15T14:28:43;45.47;;;27.53;;
27893;SDS011;15240;50.812;4.792;2023-02-15T14:31:10;49.53;;;29.23;;
27893;SDS011;15240;50.812;4.792;2023-02-15T14:33:38;48.37;;;27.53;;
27893;SDS011;15240;50.812;4.792;2023-02-15T14:36:08;44.97;;;27.97;;
27893;SDS011;15240;50.812;4.792;2023-02-15T14:41:25;47.47;;;28.20;;
27893;SDS011;15240;50.812;4.792;2023-02-15T14:44:05;45.87;;;28.67;;
27893;SDS011;15240;50.812;4.792;2023-02-15T14:49:11;50.93;;;28.17;;
27893;SDS011;15240;50.812;4.792;2023-02-15T14:56:45;47.43;;;28.93;;
27893;SDS011;15240;50.812;4.792;2023-02-15T15:01:37;47.83;;;29.90;;
27893;SDS011;15240;50.812;4.792;2023-02-15T15:04:22;48.73;;;29.80;;
27893;SDS011;15240;50.812;4.792;2023-02-15T15:07:00;46.40;;;28.57;;
27893;SDS011;15240;50.812;4.792;2023-02-15T15:09:28;49.07;;;30.10;;
27893;SDS011;15240;50.812;4.792;2023-02-15T15:12:06;47.50;;;28.63;;
27893;SDS011;15240;50.812;4.792;2023-02-15T15:14:39;48.27;;;29.73;;
27893;SDS011;15240;50.812;4.792;2023-02-15T15:17:08;54.67;;;30.30;;
27893;SDS011;15240;50.812;4.792;2023-02-15T15:19:57;47.00;;;29.07;;
27893;SDS011;15240;50.812;4.792;2023-02-15T15:22:22;48.00;;;29.13;;
27893;SDS011;15240;50.812;4.792;2023-02-15T15:24:50;46.13;;;28.53;;
27893;SDS011;15240;50.812;4.792;2023-02-15T15:30:01;50.60;;;29.60;;
27893;SDS011;15240;50.812;4.792;2023-02-15T15:32:28;50.50;;;31.03;;
27893;SDS011;15240;50.812;4.792;2023-02-15T15:37:35;48.63;;;28.87;;
27893;SDS011;15240;50.812;4.792;2023-02-15T15:47:50;51.37;;;30.03;;
27893;SDS011;15240;50.812;4.792;2023-02-15T15:50:20;47.93;;;30.37;;
27893;SDS011;15240;50.812;4.792;2023-02-15T15:52:47;50.97;;;30.73;;
27893;SDS011;15240;50.812;4.792;2023-02-15T15:55:15;50.20;;;29.90;;
27893;SDS011;15240;50.812;4.792;2023-02-15T15:57:43;53.23;;;31.60;;
27893;SDS011;15240;50.812;4.792;2023-02-15T16:02:54;50.73;;;29.87;;
27893;SDS011;15240;50.812;4.792;2023-02-15T16:05:21;51.73;;;31.50;;
27893;SDS011;15240;50.812;4.792;2023-02-15T16:07:48;52.30;;;31.40;;
27893;SDS011;15240;50.812;4.792;2023-02-15T16:10:22;52.83;;;31.67;;
27893;SDS011;15240;50.812;4.792;2023-02-15T16:12:48;57.43;;;31.23;;
27893;SDS011;15240;50.812;4.792;2023-02-15T16:15:17;57.03;;;31.30;;
27893;SDS011;15240;50.812;4.792;2023-02-15T16:17:45;52.20;;;31.57;;
27893;SDS011;15240;50.812;4.792;2023-02-15T16:20:23;52.63;;;31.83;;
27893;SDS011;15240;50.812;4.792;2023-02-15T16:22:53;57.57;;;32.90;;
27893;SDS011;15240;50.812;4.792;2023-02-15T16:25:24;55.30;;;31.97;;
27893;SDS011;15240;50.812;4.792;2023-02-15T16:27:53;49.17;;;31.27;;
27893;SDS011;15240;50.812;4.792;2023-02-15T16:32:52;54.43;;;33.03;;
27893;SDS011;15240;50.812;4.792;2023-02-15T16:35:19;54.00;;;32.73;;
27893;SDS011;15240;50.812;4.792;2023-02-15T16:37:47;52.97;;;32.83;;
27893;SDS011;15240;50.812;4.792;2023-02-15T16:42:49;51.70;;;32.27;;
27893;SDS011;15240;50.812;4.792;2023-02-15T16:45:16;52.87;;;32.40;;
27893;SDS011;15240;50.812;4.792;2023-02-15T16:47:45;54.40;;;33.53;;
27893;SDS011;15240;50.812;4.792;2023-02-15T16:50:18;52.83;;;32.73;;
27893;SDS011;15240;50.812;4.792;2023-02-15T16:52:45;55.07;;;32.60;;
27893;SDS011;15240;50.812;4.792;2023-02-15T16:55:19;51.07;;;31.97;;
27893;SDS011;15240;50.812;4.792;2023-02-15T16:57:47;55.00;;;32.07;;
27893;SDS011;15240;50.812;4.792;2023-02-15T17:00:17;58.47;;;34.33;;
27893;SDS011;15240;50.812;4.792;2023-02-15T17:02:54;51.20;;;32.37;;
27893;SDS011;15240;50.812;4.792;2023-02-15T17:05:20;56.20;;;33.27;;
27893;SDS011;15240;50.812;4.792;2023-02-15T17:10:30;56.33;;;32.77;;
27893;SDS011;15240;50.812;4.792;2023-02-15T17:13:01;57.33;;;34.73;;
27893;SDS011;15240;50.812;4.792;2023-02-15T17:17:55;59.37;;;34.37;;
27893;SDS011;15240;50.812;4.792;2023-02-15T17:20:21;57.87;;;34.30;;
27893;SDS011;15240;50.812;4.792;2023-02-15T17:22:49;61.30;;;34.47;;
27893;SDS011;15240;50.812;4.792;2023-02-15T17:25:20;63.00;;;37.00;;
27893;SDS011;15240;50.812;4.792;2023-02-15T17:27:53;62.13;;;36.70;;
27893;SDS011;15240;50.812;4.792;2023-02-15T17:30:23;62.10;;;36.33;;
27893;SDS011;15240;50.812;4.792;2023-02-15T17:32:54;61.67;;;37.53;;
27893;SDS011;15240;50.812;4.792;2023-02-15T17:35:21;63.37;;;38.20;;
27893;SDS011;15240;50.812;4.792;2023-02-15T17:37:49;61.53;;;37.53;;
27893;SDS011;15240;50.812;4.792;2023-02-15T17:40:21;63.63;;;38.47;;
27893;SDS011;15240;50.812;4.792;2023-02-15T17:42:47;61.50;;;36.80;;
27893;SDS011;15240;50.812;4.792;2023-02-15T17:45:14;64.90;;;36.67;;
27893;SDS011;15240;50.812;4.792;2023-02-15T17:47:40;66.63;;;37.67;;
27893;SDS011;15240;50.812;4.792;2023-02-15T17:50:07;62.23;;;38.37;;
27893;SDS011;15240;50.812;4.792;2023-02-15T17:52:34;64.97;;;38.20;;
27893;SDS011;15240;50.812;4.792;2023-02-15T17:55:04;62.80;;;38.03;;
27893;SDS011;15240;50.812;4.792;2023-02-15T17:57:51;63.33;;;37.17;;
27893;SDS011;15240;50.812;4.792;2023-02-15T18:00:17;65.20;;;38.03;;
27893;SDS011;15240;50.812;4.792;2023-02-15T18:03:02;63.67;;;38.50;;
27893;SDS011;15240;50.812;4.792;2023-02-15T18:05:47;65.23;;;39.10;;
27893;SDS011;15240;50.812;4.792;2023-02-15T18:08:32;69.00;;;41.07;;
27893;SDS011;15240;50.812;4.792;2023-02-15T18:11:16;64.47;;;38.73;;
27893;SDS011;15240;50.812;4.792;2023-02-15T18:13:57;64.50;;;38.83;;
27893;SDS011;15240;50.812;4.792;2023-02-15T18:16:26;67.47;;;39.63;;
27893;SDS011;15240;50.812;4.792;2023-02-15T18:18:53;63.50;;;38.63;;